Time;durP1;ratioP1;P1;durP2;ratioP2;P2;SDS_P1;SDS_P2;PMS_P1;PMS_P2;Temp;Humidity;BMP_temperature;BMP_pressure;BME280_temperature;BME280_humidity;BME280_pressure;Samples;Min_cycle;Max_cycle;Signal;HPM_P1;HPM_P2
2023/09/27 00:01:27;;;;;;;9.20;4.25;;;19.50;92.00;;;;;;7423343;19;20015;-81
2023/09/27 00:04:05;;;;;;;17.33;4.65;;;19.50;92.00;;;;;;7425108;19;20055;-81
2023/09/27 00:07:24;;;;;;;9.20;4.97;;;19.50;91.90;;;;;;7421976;19;20020;-82
2023/09/27 00:09:55;;;;;;;8.63;4.32;;;19.50;91.90;;;;;;7422080;19;20097;-81
2023/09/27 00:12:24;;;;;;;8.43;4.43;;;19.50;91.80;;;;;;7438278;19;20019;-80
2023/09/27 00:14:53;;;;;;;17.20;4.93;;;19.50;91.90;;;;;;7442625;19;20007;-81
2023/09/27 00:17:22;;;;;;;24.15;5.20;;;19.50;92.00;;;;;;7422062;19;20027;-81
2023/09/27 00:19:54;;;;;;;8.95;4.63;;;19.40;92.00;;;;;;7420793;19;20058;-80
2023/09/27 00:22:25;;;;;;;;;;;19.40;91.90;;;;;;7423384;19;20030;-81
2023/09/27 00:24:57;;;;;;;11.57;4.10;;;19.40;92.00;;;;;;7421424;19;19930;-81
2023/09/27 00:27:26;;;;;;;14.32;4.43;;;19.40;92.00;;;;;;7427091;19;20003;-82
2023/09/27 00:29:55;;;;;;;6.85;3.95;;;19.40;92.00;;;;;;7445284;19;20011;-83
2023/09/27 00:32:24;;;;;;;8.45;4.28;;;19.40;92.00;;;;;;7434657;19;20030;-80
2023/09/27 00:34:53;;;;;;;8.95;4.30;;;19.30;92.10;;;;;;7438659;19;20014;-82
2023/09/27 00:37:21;;;;;;;8.48;4.00;;;19.40;92.10;;;;;;7439918;19;20058;-81
2023/09/27 00:39:51;;;;;;;8.43;4.32;;;19.40;92.10;;;;;;7436393;19;19999;-80
2023/09/27 00:42:23;;;;;;;10.75;4.15;;;19.40;92.20;;;;;;7453906;19;20211;-82
2023/09/27 00:44:52;;;;;;;6.65;3.70;;;19.40;92.10;;;;;;7418568;19;20056;-81
2023/09/27 00:47:21;;;;;;;8.05;4.07;;;19.30;92.10;;;;;;7419793;19;20011;-81
2023/09/27 00:49:55;;;;;;;12.35;4.38;;;19.30;92.20;;;;;;7416257;19;20006;-80
2023/09/27 00:52:24;;;;;;;8.25;4.00;;;19.30;92.20;;;;;;7392875;19;20022;-80
2023/09/27 00:54:53;;;;;;;9.40;3.90;;;19.30;92.20;;;;;;7394698;19;20270;-80
2023/09/27 00:57:25;;;;;;;7.03;3.72;;;19.20;92.40;;;;;;7416165;19;20010;-81
2023/09/27 01:00:00;;;;;;;7.28;3.90;;;19.20;92.40;;;;;;7395389;19;20011;-83
2023/09/27 01:02:29;;;;;;;13.43;4.18;;;19.30;92.40;;;;;;7393605;19;20018;-81
2023/09/27 01:04:58;;;;;;;7.60;3.92;;;19.30;92.30;;;;;;7390929;19;20003;-81
2023/09/27 01:07:31;;;;;;;13.02;4.28;;;19.40;92.20;;;;;;7389573;19;20329;-82
2023/09/27 01:10:02;;;;;;;7.57;3.90;;;19.30;92.10;;;;;;7389807;19;20007;-81
2023/09/27 01:12:42;;;;;;;15.40;4.40;;;19.30;92.20;;;;;;7389217;19;20030;-82
2023/09/27 01:15:22;;;;;;;8.73;3.97;;;19.30;92.10;;;;;;7411027;19;20461;-80
2023/09/27 01:18:07;;;;;;;9.77;4.03;;;19.30;92.10;;;;;;7391012;19;20007;-81
2023/09/27 01:20:39;;;;;;;10.07;3.97;;;19.30;92.10;;;;;;7389935;19;20038;-82
2023/09/27 01:23:17;;;;;;;7.13;4.18;;;19.30;92.00;;;;;;7390876;19;20383;-82
2023/09/27 01:26:04;;;;;;;8.65;3.80;;;19.30;92.00;;;;;;7389935;19;20392;-82
2023/09/27 01:29:05;;;;;;;8.20;4.32;;;19.20;92.10;;;;;;7391017;19;20443;-82
2023/09/27 01:31:39;;;;;;;9.90;4.18;;;19.20;92.10;;;;;;7387552;19;20024;-80
2023/09/27 01:37:00;;;;;;;7.20;4.03;;;19.20;92.00;;;;;;7386596;19;20007;-81
2023/09/27 01:39:32;;;;;;;9.98;4.03;;;19.20;92.00;;;;;;7387553;19;20011;-81
2023/09/27 01:42:01;;;;;;;12.55;4.25;;;19.20;91.90;;;;;;7408654;19;20023;-82
2023/09/27 01:44:29;;;;;;;8.73;3.95;;;19.20;91.90;;;;;;7389814;19;20036;-82
2023/09/27 01:47:04;;;;;;;10.13;4.20;;;19.20;91.90;;;;;;7388377;19;20007;-81
2023/09/27 01:49:36;;;;;;;10.80;4.75;;;19.10;92.00;;;;;;7388353;19;20428;-82
2023/09/27 01:52:06;;;;;;;14.63;4.00;;;19.10;92.10;;;;;;7386249;19;20053;-80
2023/09/27 01:54:46;;;;;;;8.52;4.10;;;19.00;92.20;;;;;;7386225;19;20006;-81
2023/09/27 01:57:20;;;;;;;8.40;4.35;;;18.90;92.30;;;;;;7410257;19;20122;-82
2023/09/27 01:59:57;;;;;;;11.93;4.18;;;18.90;92.40;;;;;;7389165;19;20018;-82
2023/09/27 02:09:43;;;;;;;7.25;4.00;;;18.90;92.60;;;;;;7408495;19;20363;-82
2023/09/27 02:12:16;;;;;;;;;;;18.90;92.50;;;;;;7388458;19;20036;-81
2023/09/27 02:14:45;;;;;;;8.52;4.00;;;18.90;92.60;;;;;;7388183;19;19910;-80
2023/09/27 02:17:13;;;;;;;7.75;3.60;;;18.80;92.60;;;;;;7388476;19;20010;-82
2023/09/27 02:19:45;;;;;;;7.53;4.25;;;18.70;92.80;;;;;;7387024;19;20007;-82
2023/09/27 02:22:16;;;;;;;;;;;18.70;92.90;;;;;;7387246;19;20034;-82
2023/09/27 02:24:47;;;;;;;9.95;4.18;;;18.70;92.80;;;;;;7386890;19;19908;-81
2023/09/27 02:27:20;;;;;;;7.15;3.90;;;18.70;92.80;;;;;;7408277;19;20370;-81
2023/09/27 02:29:52;;;;;;;6.85;3.90;;;18.70;92.70;;;;;;7388642;19;19998;-81
2023/09/27 02:32:24;;;;;;;10.77;3.83;;;18.70;92.70;;;;;;7387434;19;20003;-81
2023/09/27 02:34:53;;;;;;;;;;;18.70;92.60;;;;;;7386753;19;20416;-81
2023/09/27 02:37:30;;;;;;;9.00;3.72;;;18.80;92.70;;;;;;7385471;19;19907;-81
2023/09/27 03:26:14;;;;;;;10.25;4.32;;;18.60;92.80;;;;;;7425407;19;20305;-81
2023/09/27 03:28:43;;;;;;;12.25;3.78;;;18.70;92.80;;;;;;7423666;19;19999;-81
2023/09/27 03:31:18;;;;;;;10.88;4.85;;;18.70;92.80;;;;;;7423232;19;20002;-81
2023/09/27 03:33:49;;;;;;;10.93;4.55;;;18.60;92.80;;;;;;7422519;19;20039;-83
2023/09/27 03:36:29;;;;;;;11.30;4.43;;;18.70;92.90;;;;;;7444481;19;20031;-82
2023/09/27 03:39:02;;;;;;;7.90;4.18;;;18.70;92.80;;;;;;7424895;19;20047;-82
2023/09/27 03:42:08;;;;;;;;;;;;;;;;;;;;;
2023/09/27 03:44:44;;;;;;;7.63;4.07;;;18.70;92.70;;;;;;7426467;19;20010;-81
2023/09/27 03:47:28;;;;;;;13.85;5.10;;;18.70;92.60;;;;;;7425307;19;20002;-81
2023/09/27 03:49:58;;;;;;;13.77;4.93;;;18.80;92.50;;;;;;7425468;19;20017;-81
2023/09/27 03:52:36;;;;;;;13.27;4.38;;;18.70;92.60;;;;;;7423863;19;20009;-81
2023/09/27 03:55:11;;;;;;;8.15;4.43;;;18.80;92.50;;;;;;7422365;19;20027;-81
2023/09/27 03:57:55;;;;;;;11.43;4.38;;;18.80;92.40;;;;;;7418306;19;20255;-81
2023/09/27 04:00:34;;;;;;;7.00;4.05;;;18.80;92.40;;;;;;7443094;19;20013;-82
2023/09/27 04:03:03;;;;;;;8.25;4.47;;;18.80;92.30;;;;;;7448554;19;20024;-81
2023/09/27 04:05:58;;;;;;;12.52;4.07;;;18.70;92.30;;;;;;7426456;19;20393;-83
2023/09/27 04:29:34;;;;;;;14.20;4.35;;;18.70;92.20;;;;;;7425878;19;20320;-82
2023/09/27 04:32:06;;;;;;;;;;;18.60;92.10;;;;;;7423493;19;20014;-79
2023/09/27 04:34:37;;;;;;;13.45;4.82;;;18.60;92.20;;;;;;7416114;19;19996;-77
2023/09/27 04:37:06;;;;;;;9.70;4.55;;;18.60;92.10;;;;;;7413020;19;20031;-78
2023/09/27 04:39:34;;;;;;;12.57;4.45;;;18.60;92.10;;;;;;7414440;19;20063;-76
2023/09/27 04:42:03;;;;;;;10.00;4.60;;;18.60;92.20;;;;;;7435135;19;20002;-77
2023/09/27 04:44:35;;;;;;;8.80;4.45;;;18.50;92.10;;;;;;7413297;19;20066;-78
2023/09/27 04:47:14;;;;;;;;;;;;;;;;;;;;;
2023/09/27 04:49:45;;;;;;;10.30;4.88;;;18.50;92.10;;;;;;7422953;19;20006;-80
2023/09/27 04:52:14;;;;;;;10.65;4.95;;;18.50;92.00;;;;;;7421693;19;20006;-79
2023/09/27 04:54:42;;;;;;;344.95;203.25;;;18.50;92.10;;;;;;7417375;19;20003;-78
2023/09/27 04:57:12;;;;;;;33.03;17.92;;;18.40;92.00;;;;;;7435776;19;20031;-77
2023/09/27 04:59:44;;;;;;;24.35;5.45;;;18.40;92.10;;;;;;7418658;19;20010;-77
2023/09/27 05:02:12;;;;;;;9.35;4.15;;;18.40;92.20;;;;;;7419412;19;20458;-76
2023/09/27 05:04:41;;;;;;;6.40;4.47;;;18.30;92.10;;;;;;7419271;19;20009;-77
2023/09/27 05:07:10;;;;;;;10.23;4.75;;;18.30;92.00;;;;;;7417942;19;20017;-77
2023/09/27 05:09:39;;;;;;;11.48;6.07;;;18.30;91.90;;;;;;7412925;19;20013;-76
2023/09/27 05:12:08;;;;;;;16.08;5.35;;;18.30;91.80;;;;;;7437180;19;20014;-75
2023/09/27 05:14:38;;;;;;;12.52;4.93;;;18.30;91.80;;;;;;7415185;19;20007;-78
2023/09/27 05:17:10;;;;;;;10.00;4.28;;;18.20;91.80;;;;;;7413961;19;20016;-81
2023/09/27 05:19:39;;;;;;;13.70;4.15;;;18.20;91.80;;;;;;7415473;19;20090;-80
2023/09/27 05:22:07;;;;;;;9.82;4.18;;;18.20;91.80;;;;;;7413812;19;20248;-80
2023/09/27 05:24:38;;;;;;;9.73;4.13;;;18.20;91.90;;;;;;7413640;19;20218;-80
2023/09/27 05:27:08;;;;;;;6.93;3.55;;;18.20;91.80;;;;;;7434694;19;20011;-80
2023/09/27 05:29:37;;;;;;;8.15;3.65;;;18.20;91.80;;;;;;7392042;19;20116;-80
2023/09/27 05:32:06;;;;;;;10.48;3.95;;;18.20;91.80;;;;;;7386339;19;20010;-80
2023/09/27 05:34:37;;;;;;;10.65;4.60;;;18.10;91.70;;;;;;7387151;19;20020;-80
2023/09/27 05:37:06;;;;;;;8.40;4.38;;;18.10;91.70;;;;;;7385408;19;20006;-80
2023/09/27 05:39:34;;;;;;;10.95;4.35;;;18.10;91.70;;;;;;7385177;19;20018;-80
2023/09/27 05:42:03;;;;;;;22.45;4.13;;;18.10;91.60;;;;;;7409467;19;20390;-81
2023/09/27 05:44:32;;;;;;;10.13;4.03;;;18.10;91.70;;;;;;7387160;19;20010;-81
2023/09/27 05:47:01;;;;;;;11.15;3.80;;;18.10;91.70;;;;;;7385723;19;20007;-80
2023/09/27 05:49:31;;;;;;;9.13;4.07;;;18.10;91.80;;;;;;7385357;19;20601;-81
2023/09/27 05:52:02;;;;;;;12.98;4.55;;;18.10;91.90;;;;;;7388077;19;20029;-79
2023/09/27 05:54:31;;;;;;;12.73;5.32;;;18.10;92.10;;;;;;7384981;19;20023;-79
2023/09/27 05:57:00;;;;;;;11.77;5.60;;;18.10;92.20;;;;;;7407673;19;20369;-79
2023/09/27 05:59:28;;;;;;;10.38;5.35;;;18.10;92.40;;;;;;7385533;19;20019;-79
2023/09/27 06:01:58;;;;;;;17.65;6.00;;;18.00;92.50;;;;;;7385801;19;20007;-81
2023/09/27 06:04:27;;;;;;;16.45;5.40;;;18.00;92.50;;;;;;7387990;19;20018;-79
2023/09/27 06:06:58;;;;;;;24.73;5.85;;;18.00;92.60;;;;;;7386218;19;20023;-79
2023/09/27 06:09:29;;;;;;;14.60;5.70;;;18.00;92.80;;;;;;7385834;19;20018;-79
2023/09/27 06:11:58;;;;;;;19.90;6.53;;;18.00;92.80;;;;;;7404734;19;20010;-80
2023/09/27 06:14:26;;;;;;;28.52;6.55;;;18.10;92.80;;;;;;7385844;19;20010;-80
2023/09/27 06:16:55;;;;;;;12.85;5.63;;;18.10;92.90;;;;;;7384676;19;20030;-80
2023/09/27 06:19:24;;;;;;;16.13;6.35;;;18.10;92.90;;;;;;7386492;19;20360;-80
2023/09/27 06:21:53;;;;;;;20.08;6.80;;;18.10;92.80;;;;;;7384888;19;20036;-80
2023/09/27 06:24:23;;;;;;;16.60;6.25;;;18.20;92.80;;;;;;7407741;19;20026;-80
2023/09/27 06:26:54;;;;;;;17.90;6.50;;;18.20;92.80;;;;;;7384829;19;20007;-81
2023/09/27 06:29:23;;;;;;;23.05;6.75;;;18.10;93.00;;;;;;7385953;19;20500;-80
2023/09/27 06:31:53;;;;;;;27.90;6.97;;;18.20;93.10;;;;;;7386860;19;20729;-80
2023/09/27 06:34:22;;;;;;;19.10;5.53;;;18.20;93.10;;;;;;7384758;19;20044;-80
2023/09/27 06:36:52;;;;;;;16.08;6.13;;;18.20;93.10;;;;;;7385149;19;20466;-80
2023/09/27 06:39:23;;;;;;;10.23;5.00;;;18.30;93.10;;;;;;7404720;19;20003;-80
2023/09/27 06:41:55;;;;;;;16.40;5.70;;;18.40;93.00;;;;;;7382409;19;20007;-79
2023/09/27 06:44:23;;;;;;;22.73;6.65;;;18.40;93.00;;;;;;7385207;19;20011;-79
2023/09/27 06:46:52;;;;;;;27.55;7.15;;;18.50;92.90;;;;;;7385148;19;20033;-81
2023/09/27 06:49:21;;;;;;;35.88;7.05;;;18.50;92.90;;;;;;7386100;19;20028;-80
2023/09/27 06:51:50;;;;;;;27.77;6.07;;;18.50;92.90;;;;;;7386989;19;20265;-80
2023/09/27 06:54:18;;;;;;;21.30;5.80;;;18.60;93.00;;;;;;7409344;19;20006;-81
2023/09/27 06:56:47;;;;;;;11.43;5.78;;;18.60;93.00;;;;;;7385604;19;20014;-81
2023/09/27 06:59:19;;;;;;;17.10;5.95;;;18.60;93.00;;;;;;7385834;19;20142;-79
2023/09/27 07:01:49;;;;;;;12.85;6.00;;;18.70;93.10;;;;;;7385875;19;20026;-80
2023/09/27 07:04:17;;;;;;;13.35;5.55;;;18.80;93.10;;;;;;7386835;19;20054;-80
2023/09/27 07:06:46;;;;;;;15.27;5.60;;;18.90;93.10;;;;;;7385702;19;20063;-79
2023/09/27 07:09:16;;;;;;;13.73;6.13;;;18.80;93.20;;;;;;7414360;19;20020;-80
2023/09/27 07:11:45;;;;;;;12.80;5.88;;;18.70;93.40;;;;;;7397690;19;20013;-79
2023/09/27 07:14:19;;;;;;;12.40;5.40;;;18.70;93.50;;;;;;7397038;19;20010;-79
2023/09/27 07:16:51;;;;;;;13.07;5.03;;;18.80;93.60;;;;;;7398669;19;20021;-79
2023/09/27 07:19:20;;;;;;;15.38;5.88;;;18.90;93.60;;;;;;7390521;19;20010;-79
2023/09/27 07:21:48;;;;;;;16.98;6.03;;;19.00;93.60;;;;;;7386024;19;20010;-80
2023/09/27 07:24:17;;;;;;;15.23;6.25;;;19.00;93.70;;;;;;7404563;19;20070;-79
2023/09/27 07:26:48;;;;;;;15.57;6.72;;;19.20;93.70;;;;;;7382857;19;20023;-79
2023/09/27 07:29:18;;;;;;;24.02;8.13;;;19.20;93.70;;;;;;7383967;19;20014;-82
2023/09/27 07:31:47;;;;;;;45.42;11.32;;;19.30;93.70;;;;;;7383211;19;20066;-80
2023/09/27 07:34:18;;;;;;;35.67;9.45;;;19.40;93.60;;;;;;7384770;19;20048;-80
2023/09/27 07:36:46;;;;;;;;;;;19.50;93.50;;;;;;7383874;19;20071;-80
2023/09/27 07:39:16;;;;;;;27.27;7.75;;;19.60;93.50;;;;;;7403950;19;19920;-79
2023/09/27 07:41:44;;;;;;;22.10;7.30;;;19.70;93.50;;;;;;7383447;19;20063;-80
2023/09/27 07:44:14;;;;;;;19.58;7.82;;;19.80;93.60;;;;;;7383362;19;20006;-80
2023/09/27 07:46:44;;;;;;;23.75;7.85;;;19.80;93.60;;;;;;7383286;19;20211;-81
2023/09/27 07:49:13;;;;;;;18.58;7.18;;;19.90;93.70;;;;;;7382979;19;20006;-81
2023/09/27 07:51:44;;;;;;;23.25;7.28;;;19.90;93.60;;;;;;7381247;19;20002;-80
2023/09/27 07:54:13;;;;;;;15.38;6.47;;;20.00;93.70;;;;;;7404165;19;20050;-80
2023/09/27 07:56:43;;;;;;;19.20;7.55;;;20.10;93.70;;;;;;7386394;19;20385;-79
2023/09/27 07:59:12;;;;;;;27.17;7.18;;;20.10;93.70;;;;;;7382556;19;20020;-80
2023/09/27 08:01:41;;;;;;;19.70;7.93;;;20.10;93.70;;;;;;7383522;19;20035;-79
2023/09/27 08:04:12;;;;;;;18.10;7.20;;;20.10;93.70;;;;;;7383404;19;20042;-80
2023/09/27 08:06:45;;;;;;;32.50;6.80;;;20.20;93.70;;;;;;7383535;19;20011;-80
2023/09/27 08:09:15;;;;;;;17.85;6.88;;;20.20;93.70;;;;;;7403478;19;20034;-81
2023/09/27 08:11:43;;;;;;;13.93;6.55;;;20.30;93.90;;;;;;7382236;19;20006;-80
2023/09/27 08:14:15;;;;;;;28.13;6.78;;;20.30;94.00;;;;;;7382565;19;20248;-80
2023/09/27 08:16:44;;;;;;;32.25;6.97;;;20.30;94.00;;;;;;7383540;19;20010;-80
2023/09/27 08:19:13;;;;;;;18.58;7.03;;;20.40;94.00;;;;;;7381635;19;20254;-80
2023/09/27 08:21:44;;;;;;;13.52;6.68;;;20.50;94.00;;;;;;7380882;19;20223;-80
2023/09/27 08:24:13;;;;;;;18.40;6.63;;;20.50;93.90;;;;;;7404407;19;20007;-80
2023/09/27 08:26:42;;;;;;;14.80;6.40;;;20.60;93.90;;;;;;7381554;19;20010;-80
2023/09/27 08:29:13;;;;;;;18.05;7.28;;;20.60;93.80;;;;;;7380260;19;20246;-80
2023/09/27 08:31:42;;;;;;;;;;;20.60;93.70;;;;;;7382185;19;20070;-80
2023/09/27 08:34:10;;;;;;;21.13;7.07;;;20.80;93.60;;;;;;7380738;19;19918;-80
2023/09/27 08:36:39;;;;;;;17.77;7.32;;;20.80;93.40;;;;;;7381290;19;20007;-79
2023/09/27 08:39:11;;;;;;;18.55;7.40;;;20.80;93.30;;;;;;7401388;19;20346;-80
2023/09/27 08:41:41;;;;;;;22.33;7.03;;;20.90;93.30;;;;;;7381548;19;20018;-80
2023/09/27 08:44:11;;;;;;;28.17;7.10;;;20.90;93.20;;;;;;7382022;19;20123;-80
2023/09/27 08:46:41;;;;;;;25.17;7.15;;;20.90;93.10;;;;;;7381689;19;20387;-79
2023/09/27 08:49:14;;;;;;;22.48;6.47;;;20.90;93.10;;;;;;7381409;19;20006;-80
2023/09/27 08:51:45;;;;;;;29.65;6.40;;;21.00;93.10;;;;;;7383457;19;20014;-80
2023/09/27 08:54:19;;;;;;;20.08;6.05;;;21.00;93.00;;;;;;7401971;19;20058;-80
2023/09/27 08:56:50;;;;;;;20.13;6.47;;;21.10;92.80;;;;;;7381631;19;20344;-80
2023/09/27 08:59:21;;;;;;;13.57;5.80;;;21.20;92.70;;;;;;7380274;19;20007;-81
2023/09/27 09:01:51;;;;;;;23.60;5.97;;;21.20;92.50;;;;;;7383399;19;20082;-79
2023/09/27 09:04:22;;;;;;;13.57;5.60;;;21.20;92.30;;;;;;7385664;19;20480;-81
2023/09/27 09:06:51;;;;;;;28.70;6.25;;;21.30;92.20;;;;;;7390294;19;20058;-80
2023/09/27 09:09:25;;;;;;;12.98;5.65;;;21.30;91.80;;;;;;7409457;19;20038;-80
2023/09/27 09:11:58;;;;;;;15.77;5.60;;;21.30;91.80;;;;;;7389761;19;20011;-79
2023/09/27 09:14:42;;;;;;;12.90;5.53;;;21.20;91.60;;;;;;7390208;19;20026;-80
2023/09/27 09:17:17;;;;;;;10.85;5.50;;;21.20;91.70;;;;;;7389973;19;20011;-80
2023/09/27 09:19:47;;;;;;;16.70;5.85;;;21.20;91.70;;;;;;7401538;19;20042;-79
2023/09/27 09:22:16;;;;;;;17.48;5.68;;;21.20;91.80;;;;;;7407207;19;20026;-79
2023/09/27 09:24:49;;;;;;;23.38;5.90;;;21.20;92.10;;;;;;7407816;19;20000;-79
2023/09/27 09:27:18;;;;;;;14.48;5.63;;;21.20;92.10;;;;;;7429623;19;20070;-80
2023/09/27 09:29:48;;;;;;;13.68;5.47;;;21.20;91.90;;;;;;7398564;19;20011;-79
2023/09/27 09:32:18;;;;;;;15.23;5.95;;;21.20;91.90;;;;;;7389417;19;20354;-79
2023/09/27 09:34:48;;;;;;;15.00;5.25;;;21.20;91.70;;;;;;7388085;19;20078;-79
2023/09/27 09:37:21;;;;;;;13.40;5.55;;;21.30;91.70;;;;;;7386659;19;20003;-80
2023/09/27 09:39:54;;;;;;;15.68;5.53;;;21.30;91.60;;;;;;7386991;19;20015;-80
2023/09/27 09:42:36;;;;;;;11.48;5.82;;;21.30;91.50;;;;;;7406080;19;20236;-80
2023/09/27 09:45:10;;;;;;;12.63;5.68;;;21.30;91.50;;;;;;7388490;19;20041;-80
2023/09/27 09:47:41;;;;;;;12.95;5.45;;;21.30;91.30;;;;;;7387643;19;20054;-80
2023/09/27 09:50:16;;;;;;;16.90;5.97;;;21.40;91.40;;;;;;7387919;19;20010;-80
2023/09/27 09:52:53;;;;;;;17.48;5.85;;;21.40;91.50;;;;;;7387407;19;20011;-80
2023/09/27 09:55:26;;;;;;;21.48;6.00;;;21.40;91.70;;;;;;7387499;19;20002;-81
2023/09/27 09:58:01;;;;;;;11.07;6.07;;;21.50;91.70;;;;;;7386090;19;20030;-80
2023/09/27 10:00:33;;;;;;;13.32;6.28;;;21.50;91.70;;;;;;7386077;19;20022;-79
2023/09/27 10:03:04;;;;;;;14.25;5.85;;;21.50;91.70;;;;;;7408908;19;20007;-80
2023/09/27 10:05:38;;;;;;;13.18;5.72;;;21.50;91.60;;;;;;7389590;19;20006;-82
2023/09/27 10:08:08;;;;;;;13.75;5.68;;;21.60;91.40;;;;;;7391022;19;20264;-80
2023/09/27 10:10:39;;;;;;;20.75;5.25;;;21.60;91.40;;;;;;7387341;19;20017;-80
2023/09/27 10:13:11;;;;;;;15.30;5.85;;;21.60;91.30;;;;;;7389125;19;20002;-81
2023/09/27 10:15:42;;;;;;;13.77;5.43;;;21.70;91.30;;;;;;7385963;19;20011;-80
2023/09/27 10:18:33;;;;;;;14.57;5.75;;;21.70;91.70;;;;;;7406968;19;20007;-79
2023/09/27 10:21:10;;;;;;;12.50;4.82;;;21.70;91.20;;;;;;7390802;19;20014;-80
2023/09/27 10:24:00;;;;;;;17.88;5.75;;;21.70;90.90;;;;;;7387273;19;20058;-79
2023/09/27 10:26:40;;;;;;;10.95;5.65;;;21.80;91.00;;;;;;7385586;19;20007;-79
2023/09/27 10:29:19;;;;;;;12.13;5.65;;;21.80;91.00;;;;;;7386110;19;20012;-79
2023/09/27 10:32:23;;;;;;;11.52;5.38;;;21.90;90.90;;;;;;7384770;19;20220;-80
2023/09/27 10:34:54;;;;;;;15.75;5.00;;;21.90;91.00;;;;;;7386921;19;20082;-79
2023/09/27 10:37:53;;;;;;;11.40;5.20;;;22.00;90.70;;;;;;7387920;19;20014;-79
2023/09/27 10:40:23;;;;;;;10.18;5.13;;;22.00;90.70;;;;;;7385786;19;20034;-79
2023/09/27 10:42:55;;;;;;;9.75;4.65;;;22.10;90.70;;;;;;7385021;19;20013;-80
2023/09/27 10:45:24;;;;;;;9.27;4.65;;;22.20;90.50;;;;;;7406685;19;20003;-80
2023/09/27 10:47:54;;;;;;;7.22;4.85;;;22.30;90.30;;;;;;7385951;19;20023;-80
2023/09/27 10:50:32;;;;;;;8.18;4.32;;;22.40;90.20;;;;;;7384943;19;20392;-79
2023/09/27 10:53:02;;;;;;;9.02;4.57;;;22.50;89.20;;;;;;7385832;19;20003;-80
2023/09/27 10:55:42;;;;;;;8.35;4.25;;;22.70;87.80;;;;;;7384723;19;20018;-80
2023/09/27 10:58:17;;;;;;;7.60;4.55;;;22.80;87.20;;;;;;7386050;19;20011;-79
2023/09/27 11:00:53;;;;;;;8.73;4.30;;;22.80;86.60;;;;;;7383233;19;20041;-79
2023/09/27 11:03:23;;;;;;;7.07;4.40;;;22.90;86.30;;;;;;7407529;19;20006;-79
2023/09/27 11:05:52;;;;;;;6.40;3.75;;;23.00;85.90;;;;;;7384071;19;20010;-80
2023/09/27 11:08:25;;;;;;;11.32;4.30;;;22.90;85.30;;;;;;7384732;19;20316;-80
2023/09/27 11:10:56;;;;;;;21.55;4.35;;;23.00;85.50;;;;;;7386380;19;20030;-78
2023/09/27 11:13:29;;;;;;;10.80;4.18;;;23.10;85.30;;;;;;7385413;19;20404;-79
2023/09/27 11:16:09;;;;;;;15.38;6.50;;;23.10;85.00;;;;;;7382863;19;20006;-79
2023/09/27 11:18:38;;;;;;;40.58;21.23;;;23.20;84.90;;;;;;7381973;19;20103;-79
2023/09/27 11:21:10;;;;;;;131.50;61.65;;;23.20;85.00;;;;;;7406750;19;20030;-78
2023/09/27 11:23:53;;;;;;;141.63;71.15;;;23.30;85.20;;;;;;7384211;19;20086;-83
2023/09/27 11:26:22;;;;;;;64.65;32.83;;;23.30;84.80;;;;;;7382682;19;20074;-80
2023/09/27 11:29:01;;;;;;;80.53;43.63;;;23.40;85.10;;;;;;7387602;19;20006;-78
2023/09/27 11:31:31;;;;;;;68.70;38.65;;;23.50;85.50;;;;;;7400500;19;20038;-78
2023/09/27 11:34:14;;;;;;;20.02;7.68;;;23.50;85.30;;;;;;7399281;19;20274;-78
2023/09/27 11:36:44;;;;;;;16.35;9.00;;;23.60;84.10;;;;;;7400978;19;20038;-79
2023/09/27 11:39:13;;;;;;;14.77;6.60;;;23.70;83.20;;;;;;7412243;19;20014;-80
2023/09/27 11:41:43;;;;;;;18.58;10.45;;;23.70;83.00;;;;;;7383507;19;20003;-80
2023/09/27 11:44:24;;;;;;;8.68;5.72;;;23.70;82.80;;;;;;7383762;19;20010;-80
2023/09/27 11:46:53;;;;;;;;;;;23.80;82.90;;;;;;7384625;19;20369;-81
2023/09/27 11:49:28;;;;;;;11.70;6.50;;;23.80;82.80;;;;;;7386381;19;19922;-80
2023/09/27 11:51:57;;;;;;;8.43;4.70;;;23.80;83.50;;;;;;7388001;19;20010;-79
2023/09/27 11:54:26;;;;;;;10.05;4.40;;;23.80;82.80;;;;;;7388317;19;20007;-80
2023/09/27 11:56:56;;;;;;;10.32;4.60;;;23.90;81.90;;;;;;7404025;19;20013;-80
2023/09/27 11:59:27;;;;;;;7.82;3.97;;;23.90;81.40;;;;;;7382847;19;20076;-79
2023/09/27 12:01:56;;;;;;;9.90;3.88;;;23.90;81.50;;;;;;7383230;19;20059;-79
2023/09/27 12:04:24;;;;;;;8.00;4.20;;;23.90;81.80;;;;;;7381697;19;20006;-79
2023/09/27 12:06:53;;;;;;;8.95;3.45;;;23.90;81.90;;;;;;7383323;19;20015;-80
2023/09/27 12:09:22;;;;;;;11.95;3.90;;;23.90;81.70;;;;;;7403773;19;20222;-80
2023/09/27 12:11:51;;;;;;;9.80;3.33;;;23.90;81.60;;;;;;7382281;19;20003;-80
2023/09/27 12:14:19;;;;;;;6.28;3.63;;;24.00;81.70;;;;;;7381870;19;20006;-78
2023/09/27 12:16:51;;;;;;;9.63;3.72;;;24.00;81.30;;;;;;7382262;19;20011;-81
2023/09/27 12:19:19;;;;;;;7.65;3.40;;;24.00;81.20;;;;;;7380856;19;20010;-80
2023/09/27 12:21:48;;;;;;;7.72;4.03;;;24.00;80.90;;;;;;7381082;19;20010;-80
2023/09/27 12:24:17;;;;;;;12.60;4.03;;;24.10;81.30;;;;;;7402445;19;20007;-79
2023/09/27 12:26:46;;;;;;;6.22;3.40;;;24.20;81.80;;;;;;7381570;19;20042;-80
2023/09/27 12:29:14;;;;;;;7.78;3.63;;;24.30;82.00;;;;;;7382188;19;19999;-82
2023/09/27 12:31:43;;;;;;;5.07;3.20;;;24.40;81.70;;;;;;7382272;19;20040;-80
2023/09/27 12:34:14;;;;;;;11.38;3.80;;;24.40;82.10;;;;;;7383189;19;20368;-79
2023/09/27 12:36:43;;;;;;;7.72;3.92;;;24.60;81.60;;;;;;7380461;19;20027;-80
2023/09/27 12:39:12;;;;;;;6.28;3.50;;;24.70;81.10;;;;;;7404441;19;20016;-79
2023/09/27 12:41:41;;;;;;;5.70;3.10;;;24.80;80.80;;;;;;7389330;19;20034;-80
2023/09/27 12:44:09;;;;;;;10.18;3.28;;;24.90;80.70;;;;;;7391324;19;20362;-81
2023/09/27 12:46:39;;;;;;;7.18;3.15;;;25.00;80.40;;;;;;7389460;19;20010;-81
2023/09/27 12:49:07;;;;;;;5.57;3.17;;;25.00;79.40;;;;;;7387629;19;20030;-81
2023/09/27 12:51:39;;;;;;;14.38;3.65;;;25.10;79.20;;;;;;7389250;19;20011;-81
2023/09/27 12:54:08;;;;;;;6.25;2.90;;;25.10;79.20;;;;;;7408682;19;20027;-80
2023/09/27 12:56:37;;;;;;;9.93;3.40;;;25.00;77.90;;;;;;7388655;19;20095;-80
2023/09/27 12:59:06;;;;;;;6.07;3.30;;;25.00;76.70;;;;;;7388289;19;20003;-80
2023/09/27 13:01:34;;;;;;;7.45;3.30;;;25.10;76.40;;;;;;7389691;19;20007;-80
2023/09/27 13:04:03;;;;;;;11.23;3.35;;;25.20;76.50;;;;;;7389242;19;20314;-80
2023/09/27 13:06:32;;;;;;;5.90;3.30;;;25.40;76.70;;;;;;7389334;19;20010;-81
2023/09/27 13:09:05;;;;;;;7.15;3.38;;;25.60;76.10;;;;;;7408973;19;20007;-80
2023/09/27 13:11:34;;;;;;;6.00;2.67;;;25.80;75.70;;;;;;7390435;19;20014;-81
2023/09/27 13:14:03;;;;;;;5.80;3.05;;;25.90;73.80;;;;;;7388830;19;20373;-80
2023/09/27 13:16:33;;;;;;;7.38;3.30;;;26.00;74.10;;;;;;7388727;19;20006;-81
2023/09/27 13:19:02;;;;;;;7.38;3.00;;;26.20;75.00;;;;;;7388117;19;20006;-82
2023/09/27 13:21:30;;;;;;;4.93;3.30;;;26.30;74.80;;;;;;7386493;19;20017;-80
2023/09/27 13:23:59;;;;;;;4.57;3.00;;;26.20;73.30;;;;;;7411064;19;20007;-81
2023/09/27 13:26:31;;;;;;;5.63;3.08;;;26.30;73.30;;;;;;7388633;19;20224;-81
2023/09/27 13:28:59;;;;;;;5.78;2.88;;;26.30;73.20;;;;;;7388761;19;20006;-81
2023/09/27 13:31:34;;;;;;;6.25;2.63;;;26.20;73.10;;;;;;7390250;19;20014;-80
2023/09/27 13:34:03;;;;;;;5.68;2.85;;;26.20;73.50;;;;;;7390048;19;20067;-81
2023/09/27 13:36:31;;;;;;;8.18;2.60;;;26.30;72.80;;;;;;7401350;19;20011;-81
2023/09/27 13:39:00;;;;;;;5.90;3.20;;;26.30;72.20;;;;;;7413946;19;20003;-80
2023/09/27 13:41:31;;;;;;;8.20;2.90;;;26.40;72.50;;;;;;7396754;19;19999;-81
2023/09/27 13:44:00;;;;;;;7.07;2.55;;;26.40;72.70;;;;;;7397530;19;20010;-81
2023/09/27 13:46:29;;;;;;;7.68;2.97;;;26.40;71.70;;;;;;7390742;19;20017;-81
2023/09/27 13:48:58;;;;;;;8.02;2.67;;;26.30;71.50;;;;;;7386426;19;19999;-81
2023/09/27 13:51:32;;;;;;;9.23;2.83;;;26.30;71.60;;;;;;7385447;19;20215;-82
2023/09/27 13:54:01;;;;;;;4.97;3.28;;;26.20;71.80;;;;;;7408181;19;20006;-81
2023/09/27 13:56:32;;;;;;;3.58;2.50;;;26.20;72.20;;;;;;7389248;19;20002;-82
2023/09/27 13:59:01;;;;;;;4.47;2.80;;;26.20;71.60;;;;;;7388679;19;20067;-81
2023/09/27 14:01:30;;;;;;;3.63;2.60;;;26.10;72.00;;;;;;7389793;19;20445;-82
2023/09/27 14:04:00;;;;;;;5.18;3.20;;;26.10;72.00;;;;;;7389102;19;20235;-82
2023/09/27 14:06:30;;;;;;;4.83;2.67;;;26.10;71.90;;;;;;7386178;19;20007;-82
2023/09/27 14:08:59;;;;;;;7.65;2.50;;;26.00;72.30;;;;;;7409361;19;20010;-81
2023/09/27 14:11:28;;;;;;;4.78;2.63;;;25.90;72.50;;;;;;7386675;19;20251;-81
2023/09/27 14:13:59;;;;;;;9.32;2.70;;;25.80;72.40;;;;;;7387543;19;20014;-81
2023/09/27 14:16:28;;;;;;;6.03;2.50;;;25.70;73.00;;;;;;7387387;19;20095;-82
2023/09/27 14:18:59;;;;;;;3.38;2.70;;;25.70;73.60;;;;;;7388421;19;20224;-81
2023/09/27 14:21:28;;;;;;;7.70;2.70;;;25.70;73.60;;;;;;7386603;19;20005;-84
2023/09/27 14:23:56;;;;;;;8.85;2.58;;;25.70;73.90;;;;;;7420796;19;20007;-81
2023/09/27 14:26:25;;;;;;;3.83;2.85;;;25.80;74.20;;;;;;7390248;19;20457;-82